Time;durP1;ratioP1;P1;durP2;ratioP2;P2;SDS_P1;SDS_P2;PMS_P1;PMS_P2;Temp;Humidity;BMP_temperature;BMP_pressure;BME280_temperature;BME280_humidity;BME280_pressure;Samples;Min_cycle;Max_cycle;Signal;HPM_P1;HPM_P2
2022/07/08 00:01:30;;;;;;;;;;;;;;;26.74;55.49;101140.44;5031759;28;19912;-86
2022/07/08 00:03:55;;;;;;;;;;;;;;;26.71;55.72;101136.88;5017682;28;19916;-84
2022/07/08 00:06:20;;;;;;;;;;;;;;;26.75;56.12;101141.31;5048822;28;19913;-85
2022/07/08 00:08:46;;;;;;;;;;;;;;;26.74;55.71;101139.53;5037163;28;20315;-85
2022/07/08 00:11:11;;;;;;;;;;;;;;;26.70;55.58;101137.78;5037954;28;20429;-86
2022/07/08 00:13:37;;;;;;;;;;;;;;;26.67;56.10;101145.81;5034586;28;19915;-84
2022/07/08 00:16:02;;;;;;;;;;;;;;;26.69;55.97;101144.94;5030084;28;20371;-86
2022/07/08 00:18:28;;;;;;;;;;;;;;;26.72;56.21;101138.66;5042831;28;19995;-86
2022/07/08 00:20:53;;;;;;;;;;;;;;;26.69;56.13;101142.25;5051070;28;20375;-85
2022/07/08 00:23:19;;;;;;;;;;;;;;;26.68;55.77;101151.19;5051801;28;19974;-85
2022/07/08 00:25:44;;;;;;;;;;;;;;;26.64;55.73;101144.06;5050554;28;19916;-85
2022/07/08 00:28:11;;;;;;;;;;;;;;;26.71;55.83;101144.91;5034240;28;19912;-86
2022/07/08 00:30:36;;;;;;;;;;;;;;;26.70;55.87;101149.38;5036924;28;19909;-85
2022/07/08 00:33:02;;;;;;;;;;;;;;;26.67;55.90;101140.47;5051242;28;20299;-84
2022/07/08 00:35:27;;;;;;;;;;;;;;;26.65;55.84;101150.28;5031433;28;20367;-84
2022/07/08 00:37:53;;;;;;;;;;;;;;;26.64;55.74;101159.25;5017121;28;20003;-83
2022/07/08 00:40:19;;;;;;;;;;;;;;;26.51;56.15;101142.31;5051789;28;19909;-84
2022/07/08 00:42:48;;;;;;;;;;;;;;;26.52;55.78;101145.00;5050067;28;19924;-85
2022/07/08 00:45:13;;;;;;;;;;;;;;;26.59;55.71;101151.25;5020547;28;20046;-84
2022/07/08 00:47:38;;;;;;;;;;;;;;;26.68;56.24;101156.53;5022243;28;19974;-85
2022/07/08 00:50:04;;;;;;;;;;;;;;;26.59;56.27;101146.78;5029681;28;19919;-84
2022/07/08 00:52:29;;;;;;;;;;;;;;;26.48;56.15;101148.59;5051327;28;20523;-85
2022/07/08 00:54:55;;;;;;;;;;;;;;;26.52;55.74;101142.34;5024528;28;19917;-85
2022/07/08 00:57:20;;;;;;;;;;;;;;;26.44;56.00;101141.47;5025771;28;20269;-86
2022/07/08 00:59:47;;;;;;;;;;;;;;;26.53;55.41;101136.06;5046435;28;19913;-85
2022/07/08 01:02:13;;;;;;;;;;;;;;;26.46;56.03;101131.66;5051376;28;19971;-86
2022/07/08 01:04:38;;;;;;;;;;;;;;;26.37;56.07;101137.94;5033527;28;20399;-86
2022/07/08 01:07:04;;;;;;;;;;;;;;;26.51;55.46;101131.63;5047115;28;19908;-86
2022/07/08 01:09:29;;;;;;;;;;;;;;;26.42;55.44;101124.53;5040662;28;19925;-86
2022/07/08 01:11:55;;;;;;;;;;;;;;;26.39;55.94;101124.53;5051272;28;19915;-85
2022/07/08 01:14:20;;;;;;;;;;;;;;;26.43;55.80;101123.63;5033220;28;20019;-85
2022/07/08 01:16:45;;;;;;;;;;;;;;;26.51;55.56;101124.47;5043356;28;19992;-85
2022/07/08 01:19:11;;;;;;;;;;;;;;;26.55;55.49;101128.03;5051743;28;20024;-83
2022/07/08 01:21:36;;;;;;;;;;;;;;;26.57;55.80;101128.94;5055074;28;20415;-84
2022/07/08 01:24:02;;;;;;;;;;;;;;;26.49;55.47;101131.63;5029396;28;20394;-85
2022/07/08 01:26:27;;;;;;;;;;;;;;;26.55;55.52;101134.25;5053965;28;19912;-86
2022/07/08 01:28:53;;;;;;;;;;;;;;;26.48;55.55;101129.84;5053502;28;19913;-86
2022/07/08 01:31:19;;;;;;;;;;;;;;;26.50;55.09;101137.84;5034250;28;19913;-86
2022/07/08 01:33:44;;;;;;;;;;;;;;;26.50;55.76;101137.84;5054407;28;19913;-85
2022/07/08 01:36:10;;;;;;;;;;;;;;;26.40;55.55;101131.69;5036906;28;20315;-85
2022/07/08 01:38:36;;;;;;;;;;;;;;;26.36;55.58;101127.25;5035969;28;19917;-85
2022/07/08 01:41:01;;;;;;;;;;;;;;;26.32;55.50;101134.38;5036668;28;19915;-85
2022/07/08 01:43:27;;;;;;;;;;;;;;;26.29;55.88;101137.09;5036520;28;19913;-85
2022/07/08 01:45:52;;;;;;;;;;;;;;;26.36;55.61;101132.59;5035529;28;19913;-85
2022/07/08 01:48:18;;;;;;;;;;;;;;;26.28;55.33;101132.63;5036741;28;19931;-85
2022/07/08 01:50:43;;;;;;;;;;;;;;;26.40;55.21;101129.00;5054941;28;19999;-86
2022/07/08 01:53:09;;;;;;;;;;;;;;;26.33;55.59;101125.47;5034854;28;19913;-86
2022/07/08 01:55:34;;;;;;;;;;;;;;;26.29;55.40;101131.75;5035300;28;19939;-86
2022/07/08 01:57:59;;;;;;;;;;;;;;;26.35;55.35;101131.72;5023561;28;19956;-86
2022/07/08 02:00:25;;;;;;;;;;;;;;;26.38;55.03;101128.13;5038575;28;19909;-86
2022/07/08 02:02:50;;;;;;;;;;;;;;;26.42;55.28;101137.91;5054664;28;19909;-86
2022/07/08 02:05:16;;;;;;;;;;;;;;;26.29;55.18;101139.78;5035057;28;19916;-85
2022/07/08 02:07:42;;;;;;;;;;;;;;;26.39;55.48;101137.91;5053486;28;20077;-85
2022/07/08 02:10:08;;;;;;;;;;;;;;;26.38;55.31;101136.16;5033623;28;19995;-85
2022/07/08 02:12:33;;;;;;;;;;;;;;;26.24;55.98;101136.22;5054414;28;20017;-85
2022/07/08 02:15:02;;;;;;;;;;;;;;;26.27;55.50;101129.94;5050298;28;19917;-85
2022/07/08 02:17:29;;;;;;;;;;;;;;;26.24;55.68;101127.28;5028647;28;19919;-84
2022/07/08 02:19:54;;;;;;;;;;;;;;;26.27;55.75;101141.56;5019695;28;19908;-83
2022/07/08 02:22:20;;;;;;;;;;;;;;;26.22;55.91;101142.47;5045856;28;20375;-85
2022/07/08 02:24:47;;;;;;;;;;;;;;;26.25;55.01;101139.81;5050336;28;20536;-85
2022/07/08 02:27:12;;;;;;;;;;;;;;;26.37;55.18;101142.38;5036014;28;19908;-85
2022/07/08 02:29:38;;;;;;;;;;;;;;;26.36;55.35;101141.50;5032877;28;19908;-85
2022/07/08 02:32:04;;;;;;;;;;;;;;;26.38;55.18;101144.19;5038631;28;19909;-84
2022/07/08 02:34:29;;;;;;;;;;;;;;;26.28;55.37;101148.69;5034279;28;19917;-85
2022/07/08 02:36:55;;;;;;;;;;;;;;;26.38;55.04;101145.06;5027347;28;20376;-85
2022/07/08 02:39:21;;;;;;;;;;;;;;;26.38;55.32;101145.06;5033756;28;19974;-85
2022/07/08 02:41:47;;;;;;;;;;;;;;;26.37;55.42;101137.03;5047660;28;19916;-86
2022/07/08 02:44:12;;;;;;;;;;;;;;;26.31;55.47;101143.34;5042623;28;20367;-85
2022/07/08 02:46:38;;;;;;;;;;;;;;;26.38;55.22;101157.56;5025999;28;20032;-85
2022/07/08 02:49:03;;;;;;;;;;;;;;;26.38;55.88;101155.78;5035556;28;19992;-86
2022/07/08 02:51:29;;;;;;;;;;;;;;;26.39;55.54;101156.66;5035198;28;19916;-85
2022/07/08 02:53:54;;;;;;;;;;;;;;;26.41;55.69;101152.19;5035411;28;20031;-85
2022/07/08 02:56:20;;;;;;;;;;;;;;;26.39;55.62;101149.53;5035672;28;19924;-86
2022/07/08 02:58:45;;;;;;;;;;;;;;;26.41;55.97;101152.19;5035205;28;19955;-85
2022/07/08 03:01:11;;;;;;;;;;;;;;;26.36;55.84;101148.66;5053191;28;19909;-85
2022/07/08 03:03:36;;;;;;;;;;;;;;;26.37;55.41;101153.09;5017744;28;19931;-86
2022/07/08 03:06:02;;;;;;;;;;;;;;;26.36;55.63;101162.06;5042515;28;19951;-85
2022/07/08 03:08:27;;;;;;;;;;;;;;;26.38;55.44;101166.50;5053061;28;19952;-85
2022/07/08 03:10:53;;;;;;;;;;;;;;;26.36;55.79;101168.28;5053048;28;20352;-86
2022/07/08 03:13:18;;;;;;;;;;;;;;;26.38;56.16;101163.81;5035353;28;19909;-85
2022/07/08 03:15:43;;;;;;;;;;;;;;;26.36;56.18;101167.41;5034729;28;19912;-84
2022/07/08 03:18:09;;;;;;;;;;;;;;;26.27;55.99;101171.03;5027118;28;20460;-85
2022/07/08 03:20:34;;;;;;;;;;;;;;;26.26;55.72;101166.53;5034827;28;20350;-85
2022/07/08 03:23:00;;;;;;;;;;;;;;;26.24;55.79;101167.47;5018091;28;20338;-85
2022/07/08 03:25:25;;;;;;;;;;;;;;;26.24;55.78;101170.13;5052699;28;19919;-84
2022/07/08 03:27:51;;;;;;;;;;;;;;;26.20;55.40;101158.53;5034472;28;19908;-85
2022/07/08 03:30:16;;;;;;;;;;;;;;;26.17;55.47;101163.91;5035212;28;20332;-84
2022/07/08 03:32:42;;;;;;;;;;;;;;;26.17;55.32;101170.16;5026631;28;19909;-85
2022/07/08 03:35:07;;;;;;;;;;;;;;;26.19;55.46;101178.19;5052318;28;19917;-86
2022/07/08 03:37:33;;;;;;;;;;;;;;;26.17;55.47;101172.84;5039416;28;19917;-85
2022/07/08 03:41:19;;;;;;;;;;;;;;;26.17;55.29;101170.16;5051154;28;19909;-86
2022/07/08 03:42:44;;;;;;;;;;;;;;;26.14;55.55;101172.84;5052198;28;20312;-85
2022/07/08 03:45:09;;;;;;;;;;;;;;;26.13;55.19;101170.19;5051993;28;20404;-85
2022/07/08 03:47:35;;;;;;;;;;;;;;;26.17;55.69;101185.34;5052320;28;19915;-85
2022/07/08 03:50:00;;;;;;;;;;;;;;;26.14;55.80;101179.97;5034439;28;20342;-85
2022/07/08 03:52:26;;;;;;;;;;;;;;;26.19;55.89;101178.19;5034808;28;19909;-85
2022/07/08 03:54:51;;;;;;;;;;;;;;;26.18;55.27;101184.41;5032230;28;19913;-86
2022/07/08 03:57:16;;;;;;;;;;;;;;;26.20;55.52;101182.63;5052201;28;19908;-86
2022/07/08 03:59:42;;;;;;;;;;;;;;;26.11;55.77;101183.56;5051925;28;19909;-85
2022/07/08 04:02:08;;;;;;;;;;;;;;;26.14;55.77;101182.66;5034004;28;20347;-84
2022/07/08 04:04:33;;;;;;;;;;;;;;;26.22;55.93;101188.88;5030500;28;19917;-86
2022/07/08 04:06:58;;;;;;;;;;;;;;;26.11;56.04;101194.25;5031444;28;19908;-84
2022/07/08 04:09:24;;;;;;;;;;;;;;;26.18;55.59;101187.09;5034332;28;19909;-85
2022/07/08 04:11:49;;;;;;;;;;;;;;;26.14;56.27;101188.91;5051914;28;19936;-86
2022/07/08 04:14:15;;;;;;;;;;;;;;;26.10;56.46;101192.50;5024744;28;20003;-85
2022/07/08 04:16:40;;;;;;;;;;;;;;;26.08;56.17;101188.94;5043710;28;19912;-84
2022/07/08 04:19:06;;;;;;;;;;;;;;;26.04;56.27;101186.28;5025056;28;19909;-85
2022/07/08 04:21:31;;;;;;;;;;;;;;;25.92;56.24;101188.06;5013981;28;20303;-86
2022/07/08 04:23:59;;;;;;;;;;;;;;;25.95;56.09;101182.72;5048561;28;20299;-86
2022/07/08 04:26:31;;;;;;;;;;;;;;;26.05;55.85;101185.38;5034334;28;20388;-87
2022/07/08 04:28:56;;;;;;;;;;;;;;;26.08;56.42;101188.94;5033344;28;19909;-85
2022/07/08 04:31:22;;;;;;;;;;;;;;;26.10;56.32;101186.22;5043281;28;19916;-86
2022/07/08 04:33:47;;;;;;;;;;;;;;;26.05;55.79;101191.59;5028891;28;19913;-84
2022/07/08 04:36:12;;;;;;;;;;;;;;;25.98;56.07;101185.38;5049093;28;19913;-84
2022/07/08 04:38:38;;;;;;;;;;;;;;;25.98;56.06;101187.19;5039262;28;20370;-85
2022/07/08 04:41:03;;;;;;;;;;;;;;;25.95;56.15;101180.06;5033534;28;20371;-85
2022/07/08 04:43:29;;;;;;;;;;;;;;;25.97;55.86;101188.97;5050983;28;19909;-85
2022/07/08 04:45:54;;;;;;;;;;;;;;;25.98;56.17;101182.72;5051507;28;19909;-86
2022/07/08 04:48:20;;;;;;;;;;;;;;;26.01;56.21;101179.13;5050809;28;19936;-85
2022/07/08 04:50:45;;;;;;;;;;;;;;;26.05;56.08;101177.34;5050870;28;19938;-86
2022/07/08 04:53:11;;;;;;;;;;;;;;;25.92;56.25;101184.50;5035018;28;19913;-85
2022/07/08 04:55:36;;;;;;;;;;;;;;;25.92;56.62;101181.84;5043972;28;20000;-85
2022/07/08 04:58:03;;;;;;;;;;;;;;;25.98;56.29;101190.75;5046147;28;19952;-85
2022/07/08 05:00:29;;;;;;;;;;;;;;;26.00;56.75;101190.75;5024512;28;19909;-85
2022/07/08 05:02:54;;;;;;;;;;;;;;;25.94;56.76;101178.25;5021346;28;19916;-86
2022/07/08 05:05:20;;;;;;;;;;;;;;;25.96;57.17;101191.66;5021287;28;19913;-83
2022/07/08 05:07:47;;;;;;;;;;;;;;;25.94;56.66;101182.72;5035944;28;20289;-85
2022/07/08 05:10:13;;;;;;;;;;;;;;;25.94;57.24;101182.72;5039047;28;19959;-85
2022/07/08 05:12:39;;;;;;;;;;;;;;;25.91;57.07;101190.78;5042793;28;19917;-85
2022/07/08 05:15:04;;;;;;;;;;;;;;;25.93;57.10;101187.19;5038411;28;19913;-83
2022/07/08 05:17:30;;;;;;;;;;;;;;;25.86;57.47;101189.84;5045294;28;19909;-83
2022/07/08 05:19:55;;;;;;;;;;;;;;;25.94;57.03;101197.00;5036528;28;19978;-86
2022/07/08 05:22:21;;;;;;;;;;;;;;;25.99;56.74;101186.28;5026198;28;19913;-85
2022/07/08 05:24:46;;;;;;;;;;;;;;;25.92;56.63;101189.88;5051429;28;20315;-85
2022/07/08 05:27:11;;;;;;;;;;;;;;;25.93;57.04;101191.63;5050453;28;19915;-86
2022/07/08 05:29:37;;;;;;;;;;;;;;;25.93;57.41;101186.28;5029635;28;20399;-87
2022/07/08 05:32:02;;;;;;;;;;;;;;;25.86;57.10;101190.72;5057984;28;20306;-81
2022/07/08 05:34:28;;;;;;;;;;;;;;;25.97;56.99;101186.28;5057602;28;19912;-84
2022/07/08 05:36:53;;;;;;;;;;;;;;;25.89;57.37;101195.25;5040906;28;19913;-84
2022/07/08 05:39:19;;;;;;;;;;;;;;;25.90;56.83;101194.34;5048193;28;19938;-82
2022/07/08 05:41:44;;;;;;;;;;;;;;;25.88;57.88;101190.75;5037565;28;20322;-82
2022/07/08 05:44:10;;;;;;;;;;;;;;;25.94;57.62;101199.66;5052237;28;20043;-83
2022/07/08 05:46:35;;;;;;;;;;;;;;;25.94;57.37;101194.31;5027771;28;19919;-82
2022/07/08 05:49:01;;;;;;;;;;;;;;;25.87;57.19;101195.19;5048163;28;19920;-83
2022/07/08 05:51:26;;;;;;;;;;;;;;;25.92;57.22;101203.25;5023619;28;19915;-86
2022/07/08 05:53:55;;;;;;;;;;;;;;;25.96;57.70;101194.31;5039301;28;19948;-83
2022/07/08 05:56:20;;;;;;;;;;;;;;;25.84;57.06;101197.88;5037545;28;19912;-84
2022/07/08 05:58:46;;;;;;;;;;;;;;;25.79;57.39;101195.22;5051004;28;19919;-82
2022/07/08 06:01:11;;;;;;;;;;;;;;;25.90;56.97;101200.56;5057192;28;19916;-85
2022/07/08 06:03:37;;;;;;;;;;;;;;;25.96;56.79;101195.19;5038876;28;19908;-83
2022/07/08 06:06:04;;;;;;;;;;;;;;;25.88;57.12;101199.66;5035227;28;19943;-86
2022/07/08 06:08:29;;;;;;;;;;;;;;;25.88;56.74;101198.75;5052190;28;20355;-86
2022/07/08 06:10:56;;;;;;;;;;;;;;;25.78;56.71;101192.53;5034088;28;19995;-86
2022/07/08 06:13:22;;;;;;;;;;;;;;;25.80;57.00;101196.09;5035535;28;19931;-86
2022/07/08 06:15:47;;;;;;;;;;;;;;;25.84;56.78;101187.16;5046348;28;19913;-85
2022/07/08 06:18:12;;;;;;;;;;;;;;;25.89;56.74;101192.56;5044888;28;19967;-86
2022/07/08 06:20:38;;;;;;;;;;;;;;;25.86;56.26;101192.53;5045044;28;19908;-86
2022/07/08 06:23:04;;;;;;;;;;;;;;;25.85;57.07;101194.31;5053246;28;20307;-87
2022/07/08 06:25:29;;;;;;;;;;;;;;;25.93;56.91;101195.22;5035678;28;19912;-88
2022/07/08 06:27:54;;;;;;;;;;;;;;;25.89;56.98;101196.13;5053715;28;19909;-84
2022/07/08 06:30:20;;;;;;;;;;;;;;;25.96;56.93;101194.31;5051934;28;20326;-83
2022/07/08 06:32:45;;;;;;;;;;;;;;;26.04;56.89;101191.63;5038218;28;19908;-83
2022/07/08 06:35:11;;;;;;;;;;;;;;;26.05;56.53;101196.97;5047906;28;20187;-83
2022/07/08 06:37:37;;;;;;;;;;;;;;;26.05;56.73;101186.25;5059221;28;19931;-84
2022/07/08 06:40:02;;;;;;;;;;;;;;;25.98;56.85;101184.50;5018833;28;19917;-84
2022/07/08 06:42:28;;;;;;;;;;;;;;;25.83;56.77;101193.44;5053237;28;19919;-84
2022/07/08 06:44:53;;;;;;;;;;;;;;;25.71;56.04;101194.31;5048873;28;19963;-85
2022/07/08 06:47:21;;;;;;;;;;;;;;;25.80;56.26;101204.13;5040625;28;19948;-86
2022/07/08 06:49:47;;;;;;;;;;;;;;;25.90;56.12;101195.22;5045752;28;19916;-84
2022/07/08 06:52:13;;;;;;;;;;;;;;;25.86;56.66;101193.41;5017372;28;19913;-84
2022/07/08 06:54:38;;;;;;;;;;;;;;;25.84;56.36;101189.84;5034679;28;19917;-84
2022/07/08 06:57:05;;;;;;;;;;;;;;;25.80;56.75;101185.38;5029723;28;19967;-83
2022/07/08 06:59:30;;;;;;;;;;;;;;;25.82;56.51;101185.41;5041943;28;20314;-83
2022/07/08 07:01:56;;;;;;;;;;;;;;;25.90;56.53;101183.63;5053304;28;20452;-83
2022/07/08 07:04:21;;;;;;;;;;;;;;;25.98;55.97;101181.81;5052616;28;20391;-83
2022/07/08 07:06:47;;;;;;;;;;;;;;;26.02;56.29;101180.03;5053100;28;19999;-83
2022/07/08 07:09:12;;;;;;;;;;;;;;;26.03;56.34;101182.69;5034923;28;20354;-83
2022/07/08 07:11:39;;;;;;;;;;;;;;;25.94;56.58;101188.97;5022240;28;19919;-85
2022/07/08 07:14:05;;;;;;;;;;;;;;;26.00;56.24;101183.59;5056393;28;19918;-84
2022/07/08 07:16:30;;;;;;;;;;;;;;;25.94;56.52;101188.09;5028781;28;19996;-84
2022/07/08 07:18:56;;;;;;;;;;;;;;;25.90;56.56;101188.97;5050253;28;20008;-83
2022/07/08 07:21:21;;;;;;;;;;;;;;;25.88;56.55;101185.38;5017259;28;19969;-84
2022/07/08 07:23:47;;;;;;;;;;;;;;;25.83;56.58;101189.88;5017591;28;19981;-84
2022/07/08 07:26:12;;;;;;;;;;;;;;;25.83;57.08;101192.53;5060141;28;20066;-83
2022/07/08 07:28:37;;;;;;;;;;;;;;;25.84;56.86;101195.19;5046168;28;19913;-83
2022/07/08 07:31:03;;;;;;;;;;;;;;;25.86;56.68;101192.53;5051601;28;20271;-84
2022/07/08 07:33:28;;;;;;;;;;;;;;;25.91;56.94;101196.13;5052178;28;19908;-83
2022/07/08 07:35:55;;;;;;;;;;;;;;;25.95;56.59;101201.47;5052308;28;20383;-85
2022/07/08 07:38:20;;;;;;;;;;;;;;;25.84;56.39;101191.63;5045649;28;19925;-84
2022/07/08 07:40:47;;;;;;;;;;;;;;;25.92;56.73;101197.91;5049457;28;20295;-85
2022/07/08 07:43:13;;;;;;;;;;;;;;;25.96;56.92;101197.88;5017611;28;20471;-85
2022/07/08 07:45:42;;;;;;;;;;;;;;;26.02;56.73;101193.44;5014439;28;19999;-84
2022/07/08 07:48:09;;;;;;;;;;;;;;;25.94;56.73;101197.00;5030222;28;20003;-85
2022/07/08 07:50:35;;;;;;;;;;;;;;;26.00;56.83;101191.63;5033238;28;19913;-86
2022/07/08 07:53:00;;;;;;;;;;;;;;;26.07;56.55;101196.97;5033598;28;20523;-84
2022/07/08 07:55:26;;;;;;;;;;;;;;;26.07;56.77;101199.63;5051283;28;19939;-83
2022/07/08 07:57:51;;;;;;;;;;;;;;;26.10;56.71;101202.28;5024397;28;19985;-84
2022/07/08 08:00:17;;;;;;;;;;;;;;;26.11;57.06;101191.59;5050328;28;19964;-83
2022/07/08 08:02:42;;;;;;;;;;;;;;;26.18;56.67;101193.38;5056404;28;19956;-82
2022/07/08 08:05:09;;;;;;;;;;;;;;;26.21;56.86;101195.13;5050050;28;20003;-84
2022/07/08 08:07:39;;;;;;;;;;;;;;;26.20;57.16;101196.00;5054194;28;19959;-85
2022/07/08 08:10:11;;;;;;;;;;;;;;;26.13;57.44;101196.94;5017871;28;19909;-83
2022/07/08 08:12:37;;;;;;;;;;;;;;;26.10;57.04;101204.97;5038227;28;20430;-86
2022/07/08 08:15:03;;;;;;;;;;;;;;;26.14;57.21;101201.38;5024406;28;19920;-83
2022/07/08 08:17:28;;;;;;;;;;;;;;;26.08;56.54;101202.31;5043077;28;19908;-83
2022/07/08 08:19:54;;;;;;;;;;;;;;;26.18;56.37;101192.44;5051200;28;19909;-83
2022/07/08 08:22:19;;;;;;;;;;;;;;;26.15;57.18;101204.06;5051647;28;19909;-82
2022/07/08 08:24:45;;;;;;;;;;;;;;;26.19;57.09;101197.81;5033534;28;20058;-82
2022/07/08 08:27:11;;;;;;;;;;;;;;;26.14;57.29;101199.63;5032298;28;19912;-83
2022/07/08 08:29:36;;;;;;;;;;;;;;;26.21;56.95;101192.47;5049533;28;19991;-83
2022/07/08 08:32:02;;;;;;;;;;;;;;;26.24;56.87;101199.59;5043641;28;20352;-84
2022/07/08 08:34:27;;;;;;;;;;;;;;;26.21;57.38;101197.81;5033369;28;19908;-83
2022/07/08 08:36:52;;;;;;;;;;;;;;;26.23;57.74;101193.34;5047085;28;20350;-83
2022/07/08 08:39:18;;;;;;;;;;;;;;;26.22;57.67;101196.91;5051044;28;19923;-83
2022/07/08 08:41:43;;;;;;;;;;;;;;;26.23;57.17;101189.78;5051141;28;20415;-81
2022/07/08 08:44:09;;;;;;;;;;;;;;;26.11;57.55;101190.72;5051212;28;20003;-82
2022/07/08 08:46:38;;;;;;;;;;;;;;;26.28;56.34;101199.56;5051797;28;19979;-93
2022/07/08 08:49:04;;;;;;;;;;;;;;;26.22;56.28;101190.66;5032444;28;19935;-82
2022/07/08 08:51:32;;;;;;;;;;;;;;;26.09;56.29;101184.47;5031364;28;20380;-84
2022/07/08 08:53:58;;;;;;;;;;;;;;;26.00;56.71;101182.72;5017128;28;19936;-84
2022/07/08 08:56:24;;;;;;;;;;;;;;;26.04;57.01;101180.94;5056591;28;19967;-82
2022/07/08 08:58:49;;;;;;;;;;;;;;;26.14;57.12;101182.66;5034296;28;20364;-84
2022/07/08 09:01:16;;;;;;;;;;;;;;;26.23;57.01;101179.06;5034044;28;20392;-84
2022/07/08 09:03:41;;;;;;;;;;;;;;;26.07;57.06;101179.09;5046916;28;20327;-84
2022/07/08 09:06:07;;;;;;;;;;;;;;;26.15;57.64;101179.97;5036802;28;19909;-83
2022/07/08 09:08:33;;;;;;;;;;;;;;;26.25;57.16;101170.13;5032839;28;19912;-83
2022/07/08 09:10:58;;;;;;;;;;;;;;;26.14;57.44;101178.22;5024393;28;19916;-84
2022/07/08 09:13:25;;;;;;;;;;;;;;;26.18;57.39;101176.38;5051330;28;19909;-81
2022/07/08 09:15:51;;;;;;;;;;;;;;;26.20;57.66;101175.50;5013937;28;19917;-83
2022/07/08 09:18:20;;;;;;;;;;;;;;;26.26;57.60;101171.00;5039085;28;20269;-83
2022/07/08 09:20:46;;;;;;;;;;;;;;;26.29;57.78;101173.66;5049996;28;20394;-82
2022/07/08 09:23:19;;;;;;;;;;;;;;;26.33;57.17;101171.00;5050558;28;19913;-83
2022/07/08 09:26:02;;;;;;;;;;;;;;;26.36;57.80;101170.09;5048831;28;19955;-84
2022/07/08 09:28:34;;;;;;;;;;;;;;;26.30;57.63;101162.97;5040842;28;19908;-84
2022/07/08 09:31:04;;;;;;;;;;;;;;;26.35;57.33;101165.59;5032358;28;19908;-84
2022/07/08 09:33:29;;;;;;;;;;;;;;;26.36;58.05;101165.59;5026519;28;19996;-83
2022/07/08 09:36:00;;;;;;;;;;;;;;;26.36;57.83;101160.25;5043163;28;20008;-84
2022/07/08 09:38:26;;;;;;;;;;;;;;;26.31;57.82;101155.81;5029506;28;20599;-84
2022/07/08 09:40:56;;;;;;;;;;;;;;;26.42;57.49;101154.00;5047684;28;19912;-90
2022/07/08 09:43:22;;;;;;;;;;;;;;;26.50;56.17;101152.16;5020519;28;19919;-85
2022/07/08 09:45:47;;;;;;;;;;;;;;;26.45;57.54;101148.59;5009299;28;19909;-84
2022/07/08 09:48:13;;;;;;;;;;;;;;;26.45;58.43;101148.59;5061418;28;21294;-85
2022/07/08 09:50:54;;;;;;;;;;;;;;;26.47;58.51;101151.28;5019655;28;19916;-85
2022/07/08 09:53:20;;;;;;;;;;;;;;;26.48;59.56;101150.38;5050903;28;19924;-84
2022/07/08 09:55:51;;;;;;;;;;;;;;;26.50;58.83;101151.25;5041396;28;20018;-85
2022/07/08 09:58:17;;;;;;;;;;;;;;;26.49;58.97;101144.13;5037037;28;19920;-84
2022/07/08 10:00:43;;;;;;;;;;;;;;;26.50;58.68;101141.44;5020666;28;20499;-84
2022/07/08 10:03:08;;;;;;;;;;;;;;;26.54;58.77;101142.28;5018565;28;19913;-85
2022/07/08 10:05:34;;;;;;;;;;;;;;;26.58;58.31;101136.06;5017889;28;19921;-85
2022/07/08 10:07:59;;;;;;;;;;;;;;;26.55;58.30;101139.63;5014741;28;20387;-84
2022/07/08 10:10:26;;;;;;;;;;;;;;;26.55;58.36;101136.06;5039863;28;19909;-85
2022/07/08 10:12:56;;;;;;;;;;;;;;;26.56;58.26;101136.09;5043008;28;19913;-85
2022/07/08 10:15:23;;;;;;;;;;;;;;;26.51;58.48;101137.84;5013856;28;19927;-85
2022/07/08 10:17:49;;;;;;;;;;;;;;;26.55;58.05;101134.25;5021963;28;19928;-85
2022/07/08 10:20:15;;;;;;;;;;;;;;;26.50;58.37;101135.19;5017507;28;19912;-83
2022/07/08 10:22:40;;;;;;;;;;;;;;;26.54;58.22;101134.25;5034451;28;19919;-86
2022/07/08 10:25:09;;;;;;;;;;;;;;;26.53;58.19;101137.84;5012670;28;20499;-86
2022/07/08 10:27:41;;;;;;;;;;;;;;;26.54;58.16;101136.94;5019172;28;19915;-85
2022/07/08 10:30:13;;;;;;;;;;;;;;;26.57;58.45;101139.66;5015111;28;19913;-84
2022/07/08 10:32:39;;;;;;;;;;;;;;;26.59;57.95;101133.38;5032739;28;19913;-82
2022/07/08 10:35:12;;;;;;;;;;;;;;;26.59;58.68;101140.53;5037944;28;20379;-85
2022/07/08 10:37:56;;;;;;;;;;;;;;;26.58;58.46;101138.72;5015151;28;20372;-84
2022/07/08 10:40:44;;;;;;;;;;;;;;;26.58;58.65;101134.25;5028027;28;19917;-83
2022/07/08 10:43:18;;;;;;;;;;;;;;;26.60;58.58;101135.13;5047965;28;19999;-84
2022/07/08 10:45:59;;;;;;;;;;;;;;;26.61;58.48;101128.03;5022700;28;20047;-85
2022/07/08 10:48:28;;;;;;;;;;;;;;;26.58;58.83;101128.03;5040789;28;19960;-83
2022/07/08 10:51:22;;;;;;;;;;;;;;;26.62;59.27;101128.91;5014623;28;19912;-85
2022/07/08 10:53:56;;;;;;;;;;;;;;;26.63;59.17;101125.31;5033883;28;20350;-85
2022/07/08 10:56:40;;;;;;;;;;;;;;;26.64;59.08;101119.06;5027691;28;19921;-84
2022/07/08 10:59:14;;;;;;;;;;;;;;;26.63;59.17;101125.31;5037744;28;19916;-85
2022/07/08 11:01:40;;;;;;;;;;;;;;;26.64;59.08;101122.63;5042613;28;19956;-83
2022/07/08 11:04:28;;;;;;;;;;;;;;;26.65;58.62;101110.13;5046417;28;20419;-84
2022/07/08 11:06:54;;;;;;;;;;;;;;;26.65;58.97;101113.72;5049653;28;19941;-83
2022/07/08 11:09:19;;;;;;;;;;;;;;;26.66;58.97;101117.28;5048310;28;20299;-84
2022/07/08 11:11:45;;;;;;;;;;;;;;;26.69;58.96;101117.22;5045772;28;19920;-83
2022/07/08 11:14:15;;;;;;;;;;;;;;;26.70;58.82;101105.63;5023363;28;20449;-85
2022/07/08 11:16:41;;;;;;;;;;;;;;;26.69;58.87;101102.06;5006580;28;19912;-83
2022/07/08 11:19:09;;;;;;;;;;;;;;;26.66;59.27;101107.44;5023744;28;19916;-84
2022/07/08 11:21:38;;;;;;;;;;;;;;;26.69;59.33;101106.50;5037794;28;20372;-84
2022/07/08 11:24:13;;;;;;;;;;;;;;;26.74;58.98;101102.03;5035155;28;19909;-85
2022/07/08 11:26:39;;;;;;;;;;;;;;;26.72;59.25;101102.03;5029960;28;19919;-83
2022/07/08 11:29:14;;;;;;;;;;;;;;;26.71;59.04;101104.72;5018034;28;19955;-84
2022/07/08 11:31:39;;;;;;;;;;;;;;;26.75;59.20;101096.63;5057740;28;19931;-84
2022/07/08 11:34:05;;;;;;;;;;;;;;;26.73;59.19;101098.47;5019826;28;19912;-83
2022/07/08 11:36:30;;;;;;;;;;;;;;;26.72;59.56;101083.28;5020729;28;19912;-83
2022/07/08 11:38:58;;;;;;;;;;;;;;;26.73;59.53;101087.75;5050547;28;19917;-84
2022/07/08 11:41:24;;;;;;;;;;;;;;;26.76;59.25;101092.19;5025432;28;19912;-83
2022/07/08 11:43:50;;;;;;;;;;;;;;;26.76;59.49;101087.72;5034243;28;19915;-83
2022/07/08 11:46:18;;;;;;;;;;;;;;;26.75;59.46;101085.03;5035439;28;20307;-84
2022/07/08 11:48:44;;;;;;;;;;;;;;;26.74;59.64;101080.59;5040514;28;19912;-83
2022/07/08 11:51:11;;;;;;;;;;;;;;;26.79;59.75;101085.00;5032195;28;19916;-83
2022/07/08 11:53:37;;;;;;;;;;;;;;;26.80;59.55;101080.56;5022003;28;19916;-84
2022/07/08 11:56:29;;;;;;;;;;;;;;;26.77;59.87;101081.44;5019712;28;19916;-84
2022/07/08 11:59:01;;;;;;;;;;;;;;;26.77;59.60;101084.13;5040767;28;19917;-83
2022/07/08 12:01:26;;;;;;;;;;;;;;;26.76;59.52;101084.16;5044470;28;19952;-84
2022/07/08 12:03:52;;;;;;;;;;;;;;;26.78;59.64;101085.91;5051328;28;19990;-84
2022/07/08 12:06:24;;;;;;;;;;;;;;;26.78;59.73;101077.88;5027251;28;19959;-84
2022/07/08 12:08:49;;;;;;;;;;;;;;;26.78;59.74;101071.63;5040829;28;19913;-85
2022/07/08 12:11:21;;;;;;;;;;;;;;;26.81;59.76;101069.78;5019910;28;19920;-84
2022/07/08 12:13:50;;;;;;;;;;;;;;;26.80;59.93;101078.75;5040366;28;20292;-85
2022/07/08 12:16:32;;;;;;;;;;;;;;;26.80;59.69;101073.38;5023677;28;19924;-85
2022/07/08 12:18:58;;;;;;;;;;;;;;;26.61;59.87;101047.66;5038644;28;19909;-84
2022/07/08 12:21:23;;;;;;;;;;;;;;;26.70;60.25;101066.31;5032171;28;19915;-84
2022/07/08 12:23:58;;;;;;;;;;;;;;;26.88;59.73;101069.75;5050149;28;20376;-81
2022/07/08 12:26:24;;;;;;;;;;;;;;;26.87;59.51;101058.16;5050097;28;20356;-81
2022/07/08 12:28:49;;;;;;;;;;;;;;;26.86;59.58;101059.06;5024359;28;19920;-81
2022/07/08 12:31:33;;;;;;;;;;;;;;;26.84;59.24;101055.50;5049986;28;19912;-81
2022/07/08 12:33:59;;;;;;;;;;;;;;;26.85;59.18;101051.03;5049291;28;19988;-81